createdAt,value
2017-09-29T00:01:17.366Z,82.97
2017-09-29T00:03:44.056Z,86.37
2017-09-29T00:06:10.729Z,85.35
2017-09-29T00:08:37.444Z,87.53
2017-09-29T00:11:04.107Z,82.90
2017-09-29T00:13:30.776Z,85.85
2017-09-29T00:15:57.439Z,85.22
2017-09-29T00:18:24.108Z,83.70
2017-09-29T00:20:50.776Z,84.43
2017-09-29T00:23:17.444Z,84.97
2017-09-29T00:25:44.115Z,79.18
2017-09-29T00:28:10.780Z,83.50
2017-09-29T00:30:37.475Z,79.87
2017-09-29T00:33:04.140Z,82.10
2017-09-29T00:35:30.863Z,79.37
2017-09-29T00:37:57.540Z,83.60
2017-09-29T00:40:24.207Z,84.05
2017-09-29T00:42:50.892Z,87.32
2017-09-29T00:45:17.568Z,79.15
2017-09-29T00:47:44.254Z,83.85
2017-09-29T00:50:10.924Z,78.20
2017-09-29T00:52:37.600Z,81.87
2017-09-29T00:55:04.267Z,77.32
2017-09-29T00:57:30.943Z,75.80
2017-09-29T00:59:57.620Z,80.68
2017-09-29T01:02:24.312Z,84.20
2017-09-29T01:04:51.004Z,81.28
2017-09-29T01:07:17.691Z,79.75
2017-09-29T01:09:44.364Z,77.65
2017-09-29T01:12:11.039Z,76.05
2017-09-29T01:14:37.716Z,75.53
2017-09-29T01:17:04.388Z,71.82
2017-09-29T01:19:31.060Z,79.87
2017-09-29T01:21:57.723Z,78.75
2017-09-29T01:24:24.392Z,76.40
2017-09-29T01:26:51.059Z,77.70
2017-09-29T01:29:17.728Z,80.38
2017-09-29T01:31:44.415Z,80.30
2017-09-29T01:34:11.119Z,80.05
2017-09-29T01:36:37.792Z,84.65
2017-09-29T01:39:04.502Z,87.35
2017-09-29T01:41:31.175Z,86.15
2017-09-29T01:43:57.843Z,81.30
2017-09-29T01:46:24.512Z,89.30
2017-09-29T01:48:51.179Z,92.00
2017-09-29T01:51:17.870Z,93.78
2017-09-29T01:53:44.544Z,92.93
2017-09-29T01:56:11.239Z,83.15
2017-09-29T01:58:37.907Z,88.55
2017-09-29T02:01:04.603Z,82.97
2017-09-29T02:03:31.272Z,87.62
2017-09-29T02:05:57.943Z,88.28
2017-09-29T02:08:24.607Z,85.28
2017-09-29T02:10:51.278Z,87.88
2017-09-29T02:13:17.976Z,90.10
2017-09-29T02:15:44.644Z,87.47
2017-09-29T02:18:11.339Z,93.05
2017-09-29T02:20:38.016Z,87.88
2017-09-29T02:23:04.703Z,87.90
2017-09-29T02:25:31.368Z,79.93
2017-09-29T02:27:58.043Z,83.57
2017-09-29T02:30:24.716Z,88.68
2017-09-29T02:32:51.395Z,92.90
2017-09-29T02:35:18.058Z,89.40
2017-09-29T02:37:44.730Z,90.07
2017-09-29T02:40:11.396Z,86.55
2017-09-29T02:42:38.068Z,89.53
2017-09-29T02:45:04.758Z,93.68
2017-09-29T02:47:31.428Z,93.55
2017-09-29T02:49:58.119Z,92.55
2017-09-29T02:52:24.787Z,89.82
2017-09-29T02:54:51.459Z,91.30
2017-09-29T02:57:21.796Z,92.45
2017-09-29T02:59:49.659Z,94.20
2017-09-29T03:02:19.208Z,96.85
2017-09-29T03:04:47.072Z,99.37
2017-09-29T03:07:13.760Z,94.40
2017-09-29T03:09:40.427Z,97.60
2017-09-29T03:12:07.123Z,98.97
2017-09-29T03:14:33.796Z,95.45
2017-09-29T03:17:00.512Z,95.47
2017-09-29T03:19:27.183Z,100.70
2017-09-29T03:21:53.886Z,101.82
2017-09-29T03:24:20.552Z,91.87
2017-09-29T03:26:47.228Z,101.82
2017-09-29T03:29:13.898Z,99.60
2017-09-29T03:31:40.564Z,95.85
2017-09-29T03:34:07.240Z,92.25
2017-09-29T03:36:33.916Z,95.78
2017-09-29T03:39:00.614Z,92.95
2017-09-29T03:41:27.280Z,91.68
2017-09-29T03:43:53.975Z,90.10
2017-09-29T03:46:20.639Z,95.38
2017-09-29T03:48:47.335Z,89.70
2017-09-29T03:51:14.254Z,96.43
2017-09-29T03:53:42.130Z,95.55
2017-09-29T03:56:08.964Z,97.32
2017-09-29T03:58:35.895Z,100.10
2017-09-29T04:01:02.562Z,95.57
2017-09-29T04:03:29.227Z,101.35
2017-09-29T04:05:55.896Z,104.53
2017-09-29T04:08:22.568Z,97.00
2017-09-29T04:10:49.263Z,104.53
2017-09-29T04:13:15.936Z,93.65
2017-09-29T04:15:42.681Z,101.62
2017-09-29T04:18:09.360Z,100.62
2017-09-29T04:20:36.027Z,94.22
2017-09-29T04:23:02.712Z,100.47
2017-09-29T04:25:29.391Z,95.93
2017-09-29T04:27:56.056Z,96.35
2017-09-29T04:30:22.723Z,94.30
2017-09-29T04:32:49.400Z,104.05
2017-09-29T04:35:16.068Z,96.65
2017-09-29T04:37:42.739Z,97.80
2017-09-29T04:40:09.448Z,100.95
2017-09-29T04:42:36.123Z,102.53
2017-09-29T04:45:02.808Z,97.90
2017-09-29T04:47:29.508Z,99.03
2017-09-29T04:49:56.176Z,98.05
2017-09-29T04:52:22.839Z,99.78
2017-09-29T04:54:49.512Z,100.68
2017-09-29T04:57:16.257Z,103.90
2017-09-29T04:59:42.911Z,98.35
2017-09-29T05:02:09.576Z,97.85
2017-09-29T05:04:36.248Z,97.80
2017-09-29T05:07:02.915Z,100.53
2017-09-29T05:09:29.599Z,100.68
2017-09-29T05:11:56.272Z,99.32
2017-09-29T05:14:22.963Z,89.18
2017-09-29T05:16:49.695Z,96.18
2017-09-29T05:19:16.388Z,93.20
2017-09-29T05:21:43.068Z,99.22
2017-09-29T05:24:09.781Z,92.78
2017-09-29T05:26:36.456Z,93.37
2017-09-29T05:29:03.128Z,94.20
2017-09-29T05:31:29.791Z,92.15
2017-09-29T05:33:56.464Z,92.10
2017-09-29T05:36:23.130Z,91.78
2017-09-29T05:38:49.799Z,88.20
2017-09-29T05:41:16.468Z,91.78
2017-09-29T05:43:43.140Z,86.12
2017-09-29T05:46:09.807Z,82.43
2017-09-29T05:48:36.513Z,86.15
2017-09-29T05:51:03.928Z,78.07
2017-09-29T05:53:30.598Z,82.82
2017-09-29T05:55:57.299Z,77.93
2017-09-29T05:58:23.995Z,75.45
2017-09-29T06:00:50.667Z,72.43
2017-09-29T06:03:17.336Z,75.37
2017-09-29T06:05:44.009Z,76.00
2017-09-29T06:08:10.683Z,73.45
2017-09-29T06:10:37.351Z,69.87
2017-09-29T06:13:04.028Z,68.37
2017-09-29T06:15:30.696Z,62.70
2017-09-29T06:17:57.393Z,61.92
2017-09-29T06:20:24.055Z,62.28
2017-09-29T06:22:50.724Z,59.42
2017-09-29T06:25:17.419Z,61.37
2017-09-29T06:27:44.093Z,56.42
2017-09-29T06:30:10.784Z,54.63
2017-09-29T06:32:37.460Z,53.50
2017-09-29T06:35:04.147Z,54.88
2017-09-29T06:37:30.813Z,52.08
2017-09-29T06:39:57.503Z,52.95
2017-09-29T06:42:24.171Z,53.65
2017-09-29T06:44:50.864Z,53.17
2017-09-29T06:47:17.532Z,52.00
2017-09-29T06:49:44.220Z,49.97
2017-09-29T06:52:10.887Z,52.28
2017-09-29T06:54:37.600Z,50.50
2017-09-29T06:57:04.271Z,49.53
2017-09-29T06:59:30.943Z,49.35
2017-09-29T07:01:57.607Z,47.38
2017-09-29T07:04:24.277Z,49.53
2017-09-29T07:06:50.972Z,47.62
2017-09-29T07:09:17.635Z,47.58
2017-09-29T07:11:44.343Z,46.75
2017-09-29T07:14:11.023Z,46.97
2017-09-29T07:16:37.715Z,46.50
2017-09-29T07:19:04.415Z,47.13
2017-09-29T07:21:31.108Z,46.22
2017-09-29T07:23:57.780Z,45.80
2017-09-29T07:26:25.579Z,45.22
2017-09-29T07:28:52.404Z,44.05
2017-09-29T07:31:20.707Z,43.90
2017-09-29T07:33:47.380Z,41.88
2017-09-29T07:36:14.056Z,41.90
2017-09-29T07:38:40.723Z,40.97
2017-09-29T07:41:07.404Z,40.03
2017-09-29T07:43:34.094Z,40.50
2017-09-29T07:46:00.760Z,41.67
2017-09-29T07:48:27.447Z,41.93
2017-09-29T07:50:54.112Z,43.27
2017-09-29T07:53:20.799Z,42.80
2017-09-29T07:55:47.459Z,40.83
2017-09-29T07:58:14.147Z,40.70
2017-09-29T08:00:40.904Z,39.87
2017-09-29T08:03:07.607Z,40.47
2017-09-29T08:05:34.269Z,40.13
2017-09-29T08:08:00.972Z,39.10
2017-09-29T08:10:27.636Z,39.90
2017-09-29T08:12:54.300Z,39.47
2017-09-29T08:15:20.963Z,37.50
2017-09-29T08:17:47.628Z,39.47
2017-09-29T08:20:14.288Z,39.10
2017-09-29T08:22:40.948Z,40.10
2017-09-29T08:25:07.615Z,40.50
2017-09-29T08:27:34.375Z,39.37
2017-09-29T08:30:01.060Z,40.27
2017-09-29T08:32:27.725Z,38.90
2017-09-29T08:34:54.420Z,39.57
2017-09-29T08:37:21.083Z,39.23
2017-09-29T08:39:47.776Z,37.27
2017-09-29T08:42:14.526Z,37.97
2017-09-29T08:44:41.222Z,39.07
2017-09-29T08:47:07.892Z,35.33
2017-09-29T08:49:34.558Z,39.00
2017-09-29T08:52:01.214Z,37.40
2017-09-29T08:54:27.875Z,38.67
2017-09-29T08:56:54.559Z,39.80
2017-09-29T08:59:21.236Z,39.40
2017-09-29T09:01:47.899Z,38.57
2017-09-29T09:04:14.560Z,40.00
2017-09-29T09:06:41.222Z,37.33
2017-09-29T09:09:07.891Z,40.03
2017-09-29T09:11:34.592Z,39.67
2017-09-29T09:14:01.252Z,38.87
2017-09-29T09:16:27.940Z,38.33
2017-09-29T09:18:54.626Z,37.57
2017-09-29T09:21:21.311Z,39.03
2017-09-29T09:23:47.977Z,39.30
2017-09-29T09:26:14.643Z,39.80
2017-09-29T09:28:41.309Z,39.90
2017-09-29T09:31:07.976Z,39.07
2017-09-29T09:33:34.635Z,38.50
2017-09-29T09:36:01.296Z,39.00
2017-09-29T09:38:27.959Z,36.63
2017-09-29T09:40:54.623Z,38.00
2017-09-29T09:43:21.293Z,38.10
2017-09-29T09:45:47.951Z,37.90
2017-09-29T09:48:14.644Z,38.93
2017-09-29T09:50:41.307Z,38.13
2017-09-29T09:53:08.024Z,36.90
2017-09-29T09:55:34.692Z,37.90
2017-09-29T09:58:01.389Z,36.90
2017-09-29T10:00:28.056Z,37.03
2017-09-29T10:02:54.743Z,36.90
2017-09-29T10:05:21.403Z,36.90
2017-09-29T10:07:48.071Z,37.33
2017-09-29T10:10:14.747Z,35.03
2017-09-29T10:12:41.408Z,34.60
2017-09-29T10:15:08.071Z,34.47
2017-09-29T10:17:34.744Z,31.00
2017-09-29T10:20:01.428Z,32.57
2017-09-29T10:22:28.107Z,32.07
2017-09-29T10:24:54.795Z,33.73
2017-09-29T10:27:21.464Z,33.10
2017-09-29T10:29:48.150Z,32.13
2017-09-29T10:32:14.811Z,33.97
2017-09-29T10:34:41.500Z,31.40
2017-09-29T10:37:08.159Z,33.63
2017-09-29T10:39:34.860Z,35.33
2017-09-29T10:42:01.534Z,32.43
2017-09-29T10:44:28.196Z,32.77
2017-09-29T10:46:54.863Z,34.20
2017-09-29T10:49:21.520Z,30.00
2017-09-29T10:51:48.216Z,31.40
2017-09-29T10:54:14.883Z,33.20
2017-09-29T10:56:41.548Z,34.97
2017-09-29T10:59:08.210Z,34.00
2017-09-29T11:01:34.876Z,32.23
2017-09-29T11:04:01.539Z,37.07
2017-09-29T11:06:28.204Z,35.63
2017-09-29T11:08:54.866Z,32.30
2017-09-29T11:11:21.535Z,34.07
2017-09-29T11:13:48.212Z,34.80
2017-09-29T11:16:14.894Z,32.47
2017-09-29T11:18:41.557Z,37.00
2017-09-29T11:21:08.272Z,36.57
2017-09-29T11:23:34.931Z,34.20
2017-09-29T11:26:01.595Z,34.60
2017-09-29T11:28:28.255Z,33.00
2017-09-29T11:30:54.950Z,36.10
2017-09-29T11:33:21.623Z,34.60
2017-09-29T11:35:48.291Z,34.10
2017-09-29T11:38:14.978Z,32.63
2017-09-29T11:40:41.652Z,30.63
2017-09-29T11:43:08.334Z,30.23
2017-09-29T11:45:34.995Z,30.67
2017-09-29T11:48:01.667Z,33.27
2017-09-29T11:50:28.332Z,30.33
2017-09-29T11:52:54.995Z,30.90
2017-09-29T11:55:21.663Z,29.40
2017-09-29T11:57:48.351Z,30.03
2017-09-29T12:00:15.017Z,29.97
2017-09-29T12:02:41.707Z,29.43
2017-09-29T12:05:08.375Z,28.30
2017-09-29T12:07:35.044Z,29.60
2017-09-29T12:10:01.728Z,27.47
2017-09-29T12:12:28.400Z,25.97
2017-09-29T12:14:55.091Z,25.30
2017-09-29T12:17:21.760Z,26.30
2017-09-29T12:19:48.443Z,24.97
2017-09-29T12:22:15.112Z,24.60
2017-09-29T12:24:41.804Z,24.87
2017-09-29T12:27:08.468Z,25.83
2017-09-29T12:29:35.176Z,23.60
2017-09-29T12:32:01.944Z,23.63
2017-09-29T12:34:28.608Z,22.27
2017-09-29T12:36:55.276Z,22.97
2017-09-29T12:39:22.018Z,22.50
2017-09-29T12:41:48.680Z,20.97
2017-09-29T12:44:15.351Z,20.80
2017-09-29T12:46:42.043Z,22.33
2017-09-29T12:49:08.716Z,23.13
2017-09-29T12:51:35.403Z,22.60
2017-09-29T12:54:02.075Z,23.53
2017-09-29T12:56:28.770Z,23.33
2017-09-29T12:58:55.431Z,25.10
2017-09-29T13:01:22.123Z,21.80
2017-09-29T13:03:48.785Z,22.70
2017-09-29T13:06:15.471Z,22.67
2017-09-29T13:08:42.130Z,23.30
2017-09-29T13:11:08.832Z,24.00
2017-09-29T13:13:35.587Z,23.20
2017-09-29T13:16:02.167Z,23.90
2017-09-29T13:18:28.915Z,26.07
2017-09-29T13:20:55.580Z,24.63
2017-09-29T13:23:22.242Z,25.27
2017-09-29T13:25:48.907Z,24.57
2017-09-29T13:28:15.576Z,25.30
2017-09-29T13:30:42.240Z,24.93
2017-09-29T13:33:08.927Z,22.20
2017-09-29T13:35:35.591Z,24.67
2017-09-29T13:38:02.299Z,24.43
2017-09-29T13:40:28.963Z,22.93
2017-09-29T13:42:55.654Z,22.23
2017-09-29T13:45:22.320Z,22.27
2017-09-29T13:47:49.003Z,21.30
2017-09-29T13:50:15.663Z,21.80
2017-09-29T13:52:42.365Z,19.90
2017-09-29T13:55:09.027Z,17.47
2017-09-29T13:57:35.690Z,17.10
2017-09-29T14:00:02.351Z,14.60
2017-09-29T14:02:29.011Z,13.33
2017-09-29T14:04:55.676Z,14.00
2017-09-29T14:07:22.335Z,14.30
2017-09-29T14:09:48.994Z,15.00
2017-09-29T14:12:15.667Z,15.87
2017-09-29T14:14:42.374Z,16.97
2017-09-29T14:17:09.039Z,17.07
2017-09-29T14:19:35.727Z,16.00
2017-09-29T14:22:02.397Z,15.77
2017-09-29T14:24:29.086Z,15.77
2017-09-29T14:26:55.746Z,14.40
2017-09-29T14:29:22.451Z,14.57
2017-09-29T14:31:49.116Z,14.60
2017-09-29T14:34:15.784Z,14.23
2017-09-29T14:36:42.444Z,14.50
2017-09-29T14:39:09.116Z,14.73
2017-09-29T14:41:35.786Z,14.67
2017-09-29T14:44:02.448Z,14.70
2017-09-29T14:46:29.124Z,13.00
2017-09-29T14:48:55.790Z,13.30
2017-09-29T14:51:22.451Z,13.20
2017-09-29T14:53:49.116Z,12.60
2017-09-29T14:56:15.791Z,12.50
2017-09-29T14:58:42.450Z,12.37
2017-09-29T15:01:09.131Z,12.47
2017-09-29T15:03:35.791Z,12.73
2017-09-29T15:06:02.475Z,13.03
2017-09-29T15:08:29.135Z,12.63
2017-09-29T15:10:55.832Z,11.90
2017-09-29T15:13:22.491Z,12.00
2017-09-29T15:15:49.175Z,11.37
2017-09-29T15:18:15.855Z,11.70
2017-09-29T15:20:42.555Z,12.43
2017-09-29T15:23:09.230Z,12.27
2017-09-29T15:25:35.898Z,13.32
2017-09-29T15:28:02.576Z,11.82
2017-09-29T15:30:29.260Z,12.20
2017-09-29T15:32:55.930Z,12.85
2017-09-29T15:35:22.595Z,11.77
2017-09-29T15:37:49.267Z,12.37
2017-09-29T15:40:15.938Z,12.13
2017-09-29T15:42:42.607Z,12.35
2017-09-29T15:45:09.277Z,11.65
2017-09-29T15:47:35.971Z,12.13
2017-09-29T15:50:02.644Z,13.43
2017-09-29T15:52:29.359Z,12.15
2017-09-29T15:54:56.030Z,13.07
2017-09-29T15:57:22.819Z,12.13
2017-09-29T15:59:49.487Z,12.85
2017-09-29T16:02:16.155Z,12.55
2017-09-29T16:04:42.831Z,14.02
2017-09-29T16:07:09.520Z,13.25
2017-09-29T16:09:36.207Z,12.95
2017-09-29T16:12:02.880Z,13.20
2017-09-29T16:14:29.547Z,13.30
2017-09-29T16:16:56.696Z,13.77
2017-09-29T16:19:23.390Z,14.95
2017-09-29T16:21:50.054Z,15.18
2017-09-29T16:24:16.761Z,16.30
2017-09-29T16:26:43.455Z,18.17
2017-09-29T16:29:10.123Z,18.17
2017-09-29T16:31:36.863Z,17.12
2017-09-29T16:34:03.543Z,17.95
2017-09-29T16:36:30.215Z,19.67
2017-09-29T16:38:56.879Z,16.05
2017-09-29T16:41:23.543Z,16.33
2017-09-29T16:43:50.207Z,15.82
2017-09-29T16:46:16.879Z,17.42
2017-09-29T16:48:43.551Z,17.50
2017-09-29T16:51:10.215Z,18.40
2017-09-29T16:53:36.879Z,17.60
2017-09-29T16:56:03.579Z,18.77
2017-09-29T16:58:30.243Z,18.65
2017-09-29T17:00:56.907Z,18.58
2017-09-29T17:03:23.571Z,20.77
2017-09-29T17:05:50.237Z,20.80
2017-09-29T17:08:16.903Z,19.90
2017-09-29T17:10:43.562Z,20.00
2017-09-29T17:13:10.243Z,21.17
2017-09-29T17:15:36.911Z,21.50
2017-09-29T17:18:03.576Z,22.58
2017-09-29T17:20:30.239Z,23.23
2017-09-29T17:22:56.992Z,24.15
2017-09-29T17:25:23.660Z,22.75
2017-09-29T17:27:50.323Z,22.67
2017-09-29T17:30:16.989Z,21.92
2017-09-29T17:32:43.655Z,22.55
2017-09-29T17:35:10.321Z,23.90
2017-09-29T17:37:36.991Z,24.05
2017-09-29T17:40:03.675Z,24.20
2017-09-29T17:42:30.344Z,24.25
2017-09-29T17:44:57.031Z,24.92
2017-09-29T17:47:23.696Z,25.10
2017-09-29T17:49:50.363Z,25.15
2017-09-29T17:52:17.058Z,24.45
2017-09-29T17:54:43.718Z,23.67
2017-09-29T17:57:10.435Z,21.10
2017-09-29T17:59:37.095Z,22.62
2017-09-29T18:02:03.792Z,22.42
2017-09-29T18:04:30.457Z,23.15
2017-09-29T18:06:57.144Z,21.55
2017-09-29T18:09:23.808Z,22.60
2017-09-29T18:11:50.495Z,22.52
2017-09-29T18:14:17.158Z,23.87
2017-09-29T18:16:43.881Z,21.98
2017-09-29T18:19:10.544Z,24.08
2017-09-29T18:21:37.246Z,24.90
2017-09-29T18:24:03.916Z,25.12
2017-09-29T18:26:30.583Z,24.42
2017-09-29T18:28:57.247Z,25.62
2017-09-29T18:31:23.911Z,24.80
2017-09-29T18:33:50.599Z,24.12
2017-09-29T18:36:17.263Z,25.15
2017-09-29T18:38:43.964Z,23.95
2017-09-29T18:41:13.512Z,24.42
2017-09-29T18:43:45.936Z,23.85
2017-09-29T18:46:17.151Z,24.17
2017-09-29T18:48:43.844Z,22.95
2017-09-29T18:51:10.507Z,24.15
2017-09-29T18:53:37.199Z,24.00
2017-09-29T18:56:03.861Z,23.05
2017-09-29T18:58:30.547Z,24.45
2017-09-29T19:00:57.211Z,24.27
2017-09-29T19:03:23.886Z,24.42
2017-09-29T19:05:50.555Z,25.00
2017-09-29T19:08:17.228Z,24.33
2017-09-29T19:10:43.920Z,23.67
2017-09-29T19:13:10.587Z,24.60
2017-09-29T19:15:37.283Z,25.65
2017-09-29T19:18:03.958Z,24.87
2017-09-29T19:20:30.647Z,25.23
2017-09-29T19:22:57.312Z,25.05
2017-09-29T19:25:23.999Z,25.27
2017-09-29T19:27:50.669Z,25.25
2017-09-29T19:30:17.332Z,25.77
2017-09-29T19:32:43.994Z,25.58
2017-09-29T19:35:10.655Z,25.70
2017-09-29T19:37:37.324Z,26.37
2017-09-29T19:40:03.989Z,26.00
2017-09-29T19:42:30.684Z,26.37
2017-09-29T19:44:57.359Z,25.98
2017-09-29T19:47:24.054Z,26.00
2017-09-29T19:49:50.732Z,27.50
2017-09-29T19:52:18.335Z,28.38
2017-09-29T19:54:44.999Z,27.83
2017-09-29T19:57:11.659Z,27.62
2017-09-29T19:59:38.323Z,28.15
2017-09-29T20:02:04.983Z,27.10
2017-09-29T20:04:31.669Z,28.70
2017-09-29T20:06:58.338Z,34.17
2017-09-29T20:09:25.062Z,43.10
2017-09-29T20:11:51.938Z,56.17
2017-09-29T20:14:18.622Z,71.00
2017-09-29T20:16:45.308Z,80.40
2017-09-29T20:19:12.003Z,89.65
2017-09-29T20:21:38.675Z,97.40
2017-09-29T20:24:05.367Z,97.40
2017-09-29T20:26:32.039Z,106.07
2017-09-29T20:28:58.710Z,107.28
2017-09-29T20:31:25.375Z,89.70
2017-09-29T20:33:52.034Z,75.12
2017-09-29T20:36:18.696Z,60.60
2017-09-29T20:38:45.359Z,50.50
2017-09-29T20:41:12.027Z,42.38
2017-09-29T20:43:38.704Z,35.15
2017-09-29T20:46:05.767Z,35.53
2017-09-29T20:48:32.447Z,36.03
2017-09-29T20:50:59.156Z,33.17
2017-09-29T20:53:25.823Z,34.22
2017-09-29T20:55:52.511Z,33.40
2017-09-29T20:58:19.171Z,33.00
2017-09-29T21:00:45.860Z,33.17
2017-09-29T21:03:12.539Z,33.70
2017-09-29T21:05:39.231Z,32.25
2017-09-29T21:08:05.899Z,34.42
2017-09-29T21:10:32.563Z,34.17
2017-09-29T21:12:59.225Z,32.75
2017-09-29T21:15:25.892Z,35.13
2017-09-29T21:17:52.554Z,36.58
2017-09-29T21:20:19.215Z,34.50
2017-09-29T21:22:45.903Z,34.10
2017-09-29T21:25:12.571Z,35.42
2017-09-29T21:27:39.276Z,35.58
2017-09-29T21:30:05.938Z,35.78
2017-09-29T21:32:32.600Z,34.15
2017-09-29T21:34:59.267Z,36.50
2017-09-29T21:37:25.944Z,35.63
2017-09-29T21:39:52.607Z,37.65
2017-09-29T21:42:19.271Z,36.53
2017-09-29T21:44:45.939Z,38.55
2017-09-29T21:47:12.604Z,37.03
2017-09-29T21:49:39.266Z,37.15
2017-09-29T21:52:05.927Z,35.25
2017-09-29T21:54:32.619Z,35.38
2017-09-29T21:56:59.282Z,36.85
2017-09-29T21:59:25.948Z,35.05
2017-09-29T22:01:52.615Z,37.10
2017-09-29T22:04:19.282Z,37.10
2017-09-29T22:06:45.947Z,36.90
2017-09-29T22:09:12.611Z,37.05
2017-09-29T22:11:39.271Z,35.03
2017-09-29T22:14:05.938Z,37.78
2017-09-29T22:16:32.703Z,37.58
2017-09-29T22:18:59.366Z,37.00
2017-09-29T22:21:26.031Z,37.08
2017-09-29T22:23:52.695Z,38.75
2017-09-29T22:26:19.368Z,35.00
2017-09-29T22:28:46.026Z,36.25
2017-09-29T22:31:12.687Z,36.28
2017-09-29T22:33:39.351Z,37.78
2017-09-29T22:36:06.162Z,34.65
2017-09-29T22:38:32.831Z,34.88
2017-09-29T22:40:59.495Z,36.25
2017-09-29T22:43:26.155Z,35.08
2017-09-29T22:45:52.821Z,32.00
2017-09-29T22:48:19.486Z,33.10
2017-09-29T22:50:46.154Z,35.47
2017-09-29T22:53:12.820Z,34.95
2017-09-29T22:55:39.496Z,32.90
2017-09-29T22:58:06.160Z,35.83
2017-09-29T23:00:32.823Z,34.30
2017-09-29T23:02:59.496Z,33.80
2017-09-29T23:05:26.174Z,35.38
2017-09-29T23:07:53.694Z,33.45
2017-09-29T23:10:20.364Z,34.97
2017-09-29T23:12:47.050Z,33.30
2017-09-29T23:15:13.712Z,31.95
2017-09-29T23:17:40.376Z,33.13
2017-09-29T23:20:07.047Z,32.65
2017-09-29T23:22:33.721Z,34.53
2017-09-29T23:25:00.395Z,32.05
2017-09-29T23:27:27.063Z,34.20
2017-09-29T23:29:53.724Z,34.05
2017-09-29T23:32:20.421Z,33.80
2017-09-29T23:34:47.095Z,33.13
2017-09-29T23:37:13.760Z,30.50
2017-09-29T23:39:40.427Z,32.67
2017-09-29T23:42:07.091Z,33.13
2017-09-29T23:44:33.775Z,31.70
2017-09-29T23:47:00.444Z,31.55
2017-09-29T23:49:27.118Z,30.90
2017-09-29T23:51:53.886Z,30.85
2017-09-29T23:54:20.552Z,32.03
2017-09-29T23:56:47.240Z,31.08
2017-09-29T23:59:13.904Z,32.25
